createdAt,value
2018-04-14T00:00:19.444Z,19.66
2018-04-14T00:01:19.544Z,19.76
2018-04-14T00:02:19.678Z,20.04
2018-04-14T00:03:19.820Z,20.51
2018-04-14T00:04:19.656Z,20.42
2018-04-14T00:05:19.819Z,21.28
2018-04-14T00:06:19.629Z,21.28
2018-04-14T00:07:19.750Z,21.76
2018-04-14T00:08:19.348Z,21.76
2018-04-14T00:09:19.766Z,21.76
2018-04-14T00:10:19.579Z,21.94
2018-04-14T00:11:19.753Z,21.84
2018-04-14T00:12:19.560Z,21.38
2018-04-14T00:13:19.726Z,21.09
2018-04-14T00:14:19.539Z,21.38
2018-04-14T00:15:19.325Z,22.05
2018-04-14T00:16:19.259Z,22.61
2018-04-14T00:17:19.689Z,23
2018-04-14T00:18:19.488Z,23.66
2018-04-14T00:19:19.524Z,24.42
2018-04-14T00:20:19.465Z,24.8
2018-04-14T00:21:19.543Z,24.9
2018-04-14T00:22:19.439Z,24.61
2018-04-14T00:23:19.461Z,24.42
2018-04-14T00:24:19.414Z,24.71
2018-04-14T00:25:19.571Z,24.61
2018-04-14T00:26:19.400Z,24.9
2018-04-14T00:27:19.459Z,24.9
2018-04-14T00:28:19.370Z,24.99
2018-04-14T00:29:19.374Z,25.85
2018-04-14T00:30:19.350Z,26.7
2018-04-14T00:31:19.368Z,27.56
2018-04-14T00:32:19.068Z,28.03
2018-04-14T00:33:19.472Z,27.84
2018-04-14T00:34:19.300Z,27.65
2018-04-14T00:35:19.464Z,27.46
2018-04-14T00:36:19.279Z,27.37
2018-04-14T00:37:19.438Z,26.7
2018-04-14T00:38:19.256Z,26.42
2018-04-14T00:39:19.123Z,25.56
2018-04-14T00:40:19.231Z,25.56
2018-04-14T00:41:19.376Z,25.75
2018-04-14T00:42:19.211Z,26.89
2018-04-14T00:43:19.261Z,27.37
2018-04-14T00:44:19.187Z,27.94
2018-04-14T00:45:19.292Z,27.65
2018-04-14T00:46:18.904Z,29.17
2018-04-14T00:47:19.295Z,29.17
2018-04-14T00:48:19.136Z,29.08
2018-04-14T00:49:18.970Z,29.46
2018-04-14T00:50:19.113Z,29.74
2018-04-14T00:51:19.110Z,29.36
2018-04-14T00:52:19.104Z,29.08
2018-04-14T00:53:19.202Z,28.89
2018-04-14T00:54:18.812Z,28.7
2018-04-14T00:55:18.845Z,28.7
2018-04-14T00:56:19.048Z,29.27
2018-04-14T00:57:19.068Z,28.41
2018-04-14T00:58:19.024Z,28.31
2018-04-14T00:59:19.072Z,28.13
2018-04-14T01:00:19.000Z,28.13
2018-04-14T01:01:19.054Z,28.03
2018-04-14T01:02:18.716Z,27.37
2018-04-14T01:03:18.740Z,27.46
2018-04-14T01:04:18.956Z,27.56
2018-04-14T01:05:19.029Z,27.46
2018-04-14T01:06:18.927Z,27.37
2018-04-14T01:07:18.947Z,27.08
2018-04-14T01:08:18.956Z,26.7
2018-04-14T01:09:18.896Z,26.23
2018-04-14T01:10:18.983Z,26.51
2018-04-14T01:11:18.873Z,26.13
2018-04-14T01:12:18.889Z,26.23
2018-04-14T01:13:18.853Z,25.65
2018-04-14T01:14:18.869Z,24.99
2018-04-14T01:15:18.833Z,24.8
2018-04-14T01:16:18.857Z,24.13
2018-04-14T01:17:18.802Z,24.23
2018-04-14T01:18:18.802Z,23.57
2018-04-14T01:19:18.783Z,23.19
2018-04-14T01:20:18.766Z,23
2018-04-14T01:21:18.761Z,23.19
2018-04-14T01:22:18.747Z,23.28
2018-04-14T01:23:18.739Z,23.57
2018-04-14T01:24:18.464Z,23.85
2018-04-14T01:25:18.713Z,23.57
2018-04-14T01:26:18.699Z,23.66
2018-04-14T01:27:18.687Z,23.75
2018-04-14T01:28:18.684Z,24.04
2018-04-14T01:29:18.669Z,24.23
2018-04-14T01:30:18.395Z,24.71
2018-04-14T01:31:18.639Z,24.71
2018-04-14T01:32:18.632Z,24.9
2018-04-14T01:33:18.624Z,24.71
2018-04-14T01:34:18.606Z,24.99
2018-04-14T01:35:18.596Z,25.09
2018-04-14T01:36:18.587Z,25.18
2018-04-14T01:37:18.575Z,25.46
2018-04-14T01:38:18.568Z,25.94
2018-04-14T01:39:18.550Z,25.56
2018-04-14T01:40:18.541Z,26.89
2018-04-14T01:41:18.268Z,27.56
2018-04-14T01:42:18.514Z,27.65
2018-04-14T01:43:18.500Z,28.03
2018-04-14T01:44:18.236Z,28.89
2018-04-14T01:45:18.482Z,29.17
2018-04-14T01:46:18.470Z,28.98
2018-04-14T01:47:18.455Z,28.89
2018-04-14T01:48:18.446Z,28.22
2018-04-14T01:49:18.437Z,29.27
2018-04-14T01:50:18.452Z,29.64
2018-04-14T01:51:18.155Z,29.64
2018-04-14T01:52:18.402Z,29.64
2018-04-14T01:53:18.389Z,29.64
2018-04-14T01:54:18.377Z,29.64
2018-04-14T01:55:18.364Z,31.36
2018-04-14T01:56:18.361Z,31.74
2018-04-14T01:57:18.343Z,31.36
2018-04-14T01:58:18.334Z,31.64
2018-04-14T01:59:18.320Z,31.64
2018-04-14T02:00:18.049Z,31.93
2018-04-14T02:01:18.296Z,31.84
2018-04-14T02:02:18.282Z,32.5
2018-04-14T02:03:18.275Z,32.4
2018-04-14T02:04:18.262Z,32.78
2018-04-14T02:05:18.249Z,32.97
2018-04-14T02:06:18.236Z,32.97
2018-04-14T02:07:18.229Z,33.45
2018-04-14T02:08:18.217Z,33.54
2018-04-14T02:09:18.213Z,33.17
2018-04-14T02:10:18.192Z,33.17
2018-04-14T02:11:17.924Z,33.17
2018-04-14T02:12:18.164Z,33.83
2018-04-14T02:13:18.160Z,34.02
2018-04-14T02:14:18.145Z,33.83
2018-04-14T02:15:18.140Z,33.54
2018-04-14T02:16:18.133Z,33.83
2018-04-14T02:17:18.121Z,34.59
2018-04-14T02:18:18.100Z,34.3
2018-04-14T02:19:18.095Z,33.73
2018-04-14T02:20:18.074Z,32.97
2018-04-14T02:21:18.064Z,32.88
2018-04-14T02:22:18.061Z,32.78
2018-04-14T02:23:18.042Z,33.54
2018-04-14T02:24:18.032Z,34.11
2018-04-14T02:25:18.021Z,34.59
2018-04-14T02:26:18.010Z,34.69
2018-04-14T02:27:17.997Z,34.97
2018-04-14T02:28:17.729Z,35.16
2018-04-14T02:29:17.973Z,34.88
2018-04-14T02:30:17.707Z,34.97
2018-04-14T02:31:17.962Z,35.06
2018-04-14T02:32:17.964Z,34.69
2018-04-14T02:33:17.932Z,34.5
2018-04-14T02:34:17.919Z,34.88
2018-04-14T02:35:17.962Z,34.69
2018-04-14T02:36:17.637Z,35.06
2018-04-14T02:37:17.881Z,34.88
2018-04-14T02:38:17.870Z,35.73
2018-04-14T02:39:17.874Z,36.21
2018-04-14T02:40:17.592Z,38.1
2018-04-14T02:41:17.848Z,39.43
2018-04-14T02:42:17.826Z,41.14
2018-04-14T02:43:17.820Z,42.47
2018-04-14T02:44:17.803Z,43.24
2018-04-14T02:45:17.807Z,43.8
2018-04-14T02:46:17.785Z,43.43
2018-04-14T02:47:17.771Z,43.05
2018-04-14T02:48:17.757Z,42.76
2018-04-14T02:49:17.786Z,42.67
2018-04-14T02:50:17.737Z,43.62
2018-04-14T02:51:17.728Z,44.76
2018-04-14T02:52:17.826Z,44.67
2018-04-14T02:53:17.447Z,44.85
2018-04-14T02:54:17.693Z,46.19
2018-04-14T02:55:17.679Z,47.42
2018-04-14T02:56:17.416Z,46.47
2018-04-14T02:57:17.658Z,45.04
2018-04-14T02:58:17.653Z,45.14
2018-04-14T02:59:17.642Z,46.09
2018-04-14T03:00:17.637Z,47.61
2018-04-14T03:01:17.616Z,48.85
2018-04-14T03:02:17.600Z,49.98
2018-04-14T03:03:17.592Z,49.41
2018-04-14T03:04:17.595Z,48.56
2018-04-14T03:05:17.571Z,49.98
2018-04-14T03:06:17.558Z,53.12
2018-04-14T03:07:17.547Z,54.07
2018-04-14T03:08:17.533Z,53.22
2018-04-14T03:09:17.521Z,51.98
2018-04-14T03:10:17.645Z,51.7
2018-04-14T03:11:17.505Z,52.26
2018-04-14T03:12:17.496Z,54.07
2018-04-14T03:13:17.479Z,54.55
2018-04-14T03:14:17.472Z,55.59
2018-04-14T03:15:17.458Z,56.35
2018-04-14T03:16:17.443Z,56.16
2018-04-14T03:17:17.172Z,56.35
2018-04-14T03:18:17.423Z,56.35
2018-04-14T03:19:17.154Z,56.26
2018-04-14T03:20:17.399Z,55.78
2018-04-14T03:21:17.388Z,55.5
2018-04-14T03:22:17.374Z,55.78
2018-04-14T03:23:17.370Z,57.59
2018-04-14T03:24:17.096Z,57.11
2018-04-14T03:25:17.342Z,55.59
2018-04-14T03:26:17.075Z,54.55
2018-04-14T03:27:17.325Z,54.64
2018-04-14T03:28:17.315Z,55.59
2018-04-14T03:29:17.298Z,54.83
2018-04-14T03:30:17.302Z,53.69
2018-04-14T03:31:17.428Z,53.78
2018-04-14T03:32:17.006Z,54.26
2018-04-14T03:33:17.257Z,54.36
2018-04-14T03:34:17.240Z,53.59
2018-04-14T03:35:17.233Z,54.45
2018-04-14T03:36:17.220Z,54.74
2018-04-14T03:37:17.204Z,55.3
2018-04-14T03:38:17.199Z,55.4
2018-04-14T03:39:17.181Z,55.02
2018-04-14T03:40:17.171Z,54.93
2018-04-14T03:41:17.167Z,55.4
2018-04-14T03:42:17.156Z,55.97
2018-04-14T03:43:16.947Z,57.5
2018-04-14T03:44:17.130Z,58.06
2018-04-14T03:45:16.857Z,58.25
2018-04-14T03:46:17.104Z,58.54
2018-04-14T03:47:17.095Z,58.54
2018-04-14T03:48:17.085Z,57.68
2018-04-14T03:49:17.078Z,57.4
2018-04-14T03:50:17.063Z,57.02
2018-04-14T03:51:17.052Z,57.21
2018-04-14T03:52:17.036Z,57.4
2018-04-14T03:53:17.026Z,56.45
2018-04-14T03:54:17.015Z,55.78
2018-04-14T03:55:17.066Z,56.07
2018-04-14T03:56:16.989Z,59.39
2018-04-14T03:57:16.978Z,59.96
2018-04-14T03:58:16.710Z,60.06
2018-04-14T03:59:16.699Z,59.96
2018-04-14T04:00:16.949Z,61.29
2018-04-14T04:01:16.936Z,60.44
2018-04-14T04:02:16.925Z,59.87
2018-04-14T04:03:16.915Z,59.77
2018-04-14T04:04:16.901Z,59.39
2018-04-14T04:05:16.885Z,59.11
2018-04-14T04:06:16.879Z,59.77
2018-04-14T04:07:16.866Z,60.25
2018-04-14T04:08:16.857Z,63.29
2018-04-14T04:09:16.850Z,66.61
2018-04-14T04:10:16.576Z,66.14
2018-04-14T04:11:16.836Z,65.38
2018-04-14T04:12:16.553Z,65.67
2018-04-14T04:13:16.798Z,66.71
2018-04-14T04:14:16.789Z,66.71
2018-04-14T04:15:16.772Z,66.05
2018-04-14T04:16:16.765Z,67.09
2018-04-14T04:17:16.494Z,66.9
2018-04-14T04:18:16.747Z,69.66
2018-04-14T04:19:16.473Z,72.89
2018-04-14T04:20:16.461Z,75.07
2018-04-14T04:21:16.450Z,72.89
2018-04-14T04:22:16.696Z,71.37
2018-04-14T04:23:16.426Z,69.94
2018-04-14T04:24:16.675Z,70.23
2018-04-14T04:25:16.666Z,72.41
2018-04-14T04:26:16.394Z,73.27
2018-04-14T04:27:16.642Z,72.22
2018-04-14T04:28:16.788Z,72.7
2018-04-14T04:29:16.623Z,72.99
2018-04-14T04:30:16.608Z,72.03
2018-04-14T04:31:16.595Z,74.31
2018-04-14T04:32:16.327Z,77.36
2018-04-14T04:33:16.569Z,77.36
2018-04-14T04:34:16.308Z,78.72
2018-04-14T04:35:16.555Z,80.72
2018-04-14T04:36:16.541Z,79.3
2018-04-14T04:37:16.529Z,80.72
2018-04-14T04:38:16.516Z,82.15
2018-04-14T04:39:16.505Z,84.43
2018-04-14T04:40:16.492Z,84.62
2018-04-14T04:41:16.224Z,83.58
2018-04-14T04:42:16.475Z,83.95
2018-04-14T04:43:16.458Z,82.81
2018-04-14T04:44:16.192Z,83.29
2018-04-14T04:45:16.439Z,85.28
2018-04-14T04:46:16.431Z,86.24
2018-04-14T04:47:16.420Z,87.95
2018-04-14T04:48:16.144Z,88.8
2018-04-14T04:49:16.398Z,85.1
2018-04-14T04:50:16.392Z,85.47
2018-04-14T04:51:16.373Z,85.57
2018-04-14T04:52:16.103Z,86.8
2018-04-14T04:53:16.348Z,86.05
2018-04-14T04:54:16.336Z,84.24
2018-04-14T04:55:16.070Z,84.52
2018-04-14T04:56:16.318Z,86.99
2018-04-14T04:57:16.304Z,84.33
2018-04-14T04:58:16.034Z,82.24
2018-04-14T04:59:16.281Z,80.82
2018-04-14T05:00:16.277Z,80.82
2018-04-14T05:01:16.270Z,81.86
2018-04-14T05:02:16.251Z,83.95
2018-04-14T05:03:16.240Z,86.8
2018-04-14T05:04:16.229Z,87.47
2018-04-14T05:05:15.956Z,88.71
2018-04-14T05:06:16.204Z,86.9
2018-04-14T05:07:15.934Z,86.33
2018-04-14T05:08:16.187Z,85.95
2018-04-14T05:09:16.172Z,86.24
2018-04-14T05:10:16.163Z,86.52
2018-04-14T05:11:15.893Z,85.57
2018-04-14T05:12:15.879Z,84.33
2018-04-14T05:13:16.498Z,83.95
2018-04-14T05:14:15.859Z,85
2018-04-14T05:15:16.108Z,84.95
2018-04-14T05:16:15.838Z,84.72
2018-04-14T05:17:16.081Z,86.05
2018-04-14T05:18:16.072Z,84.95
2018-04-14T05:19:16.064Z,84.58
2018-04-14T05:20:16.048Z,83.72
2018-04-14T05:21:15.780Z,82.1
2018-04-14T05:22:16.031Z,80.77
2018-04-14T05:23:15.756Z,82.96
2018-04-14T05:24:16.077Z,82.01
2018-04-14T05:25:15.995Z,82.2
2018-04-14T05:26:15.984Z,84.29
2018-04-14T05:27:15.971Z,84.52
2018-04-14T05:28:15.702Z,86.8
2018-04-14T05:29:15.691Z,84.33
2018-04-14T05:30:15.939Z,87.95
2018-04-14T05:31:15.928Z,88.52
2018-04-14T05:32:15.915Z,88.23
2018-04-14T05:33:15.906Z,89.85
2018-04-14T05:34:15.893Z,88.8
2018-04-14T05:35:15.885Z,91.28
2018-04-14T05:36:15.871Z,91.85
2018-04-14T05:37:15.863Z,90.14
2018-04-14T05:38:15.593Z,91.18
2018-04-14T05:39:15.580Z,91.18
2018-04-14T05:40:15.825Z,89.8
2018-04-14T05:41:15.820Z,88.66
2018-04-14T05:42:15.549Z,89.99
2018-04-14T05:43:15.801Z,89.14
2018-04-14T05:44:15.528Z,88.56
2018-04-14T05:45:15.770Z,90.56
2018-04-14T05:46:15.762Z,92.56
2018-04-14T05:47:15.751Z,91.89
2018-04-14T05:48:15.740Z,92.27
2018-04-14T05:49:15.734Z,91.99
2018-04-14T05:50:15.721Z,91.22
2018-04-14T05:51:15.758Z,90.66
2018-04-14T05:52:15.700Z,92.27
2018-04-14T05:53:15.686Z,90.94
2018-04-14T05:54:15.419Z,90.47
2018-04-14T05:55:15.413Z,89.99
2018-04-14T05:56:15.657Z,91.8
2018-04-14T05:57:15.652Z,90.47
2018-04-14T05:58:15.641Z,89.42
2018-04-14T05:59:15.621Z,89.75
2018-04-14T06:00:15.404Z,90.7
2018-04-14T06:01:15.612Z,89.51
2018-04-14T06:02:15.596Z,89.99
2018-04-14T06:03:15.587Z,90.37
2018-04-14T06:04:15.571Z,88.94
2018-04-14T06:05:15.562Z,89.89
2018-04-14T06:06:15.295Z,92.08
2018-04-14T06:07:15.543Z,90.84
2018-04-14T06:08:15.528Z,90.08
2018-04-14T06:09:15.646Z,89.14
2018-04-14T06:10:15.510Z,89.85
2018-04-14T06:11:15.502Z,91.51
2018-04-14T06:12:15.491Z,90.7
2018-04-14T06:13:15.479Z,89
2018-04-14T06:14:15.464Z,88.23
2018-04-14T06:15:15.457Z,88.61
2018-04-14T06:16:15.446Z,88.04
2018-04-14T06:17:15.436Z,87.76
2018-04-14T06:18:15.424Z,86.61
2018-04-14T06:19:15.411Z,86.24
2018-04-14T06:20:15.405Z,84.91
2018-04-14T06:21:15.401Z,83.95
2018-04-14T06:22:15.555Z,86.24
2018-04-14T06:23:15.373Z,85.19
2018-04-14T06:24:15.102Z,87.09
2018-04-14T06:25:15.355Z,86.71
2018-04-14T06:26:15.339Z,87.95
2018-04-14T06:27:15.331Z,87.95
2018-04-14T06:28:15.446Z,87.85
2018-04-14T06:29:15.312Z,88.13
2018-04-14T06:30:15.300Z,87.19
2018-04-14T06:31:15.292Z,89.94
2018-04-14T06:32:15.279Z,89.94
2018-04-14T06:33:15.265Z,88.33
2018-04-14T06:34:14.995Z,87.61
2018-04-14T06:35:15.245Z,87.99
2018-04-14T06:36:15.239Z,88.85
2018-04-14T06:37:15.228Z,88.46
2018-04-14T06:38:15.218Z,89.7
2018-04-14T06:39:15.205Z,90.08
2018-04-14T06:40:15.196Z,90.94
2018-04-14T06:41:15.182Z,91.65
2018-04-14T06:42:14.917Z,97.79
2018-04-14T06:43:15.159Z,98.6
2018-04-14T06:44:15.153Z,99.99
2018-04-14T06:45:14.881Z,99.95
2018-04-14T06:46:15.130Z,99.52
2018-04-14T06:47:15.125Z,98.03
2018-04-14T06:48:15.110Z,95.98
2018-04-14T06:49:15.116Z,93.16
2018-04-14T06:50:14.889Z,90.1
2018-04-14T06:51:15.087Z,84.88
2018-04-14T06:52:15.078Z,81.38
2018-04-14T06:53:15.073Z,78.02
2018-04-14T06:54:15.067Z,74.41
2018-04-14T06:55:14.802Z,70.61
2018-04-14T06:56:15.049Z,68.02
2018-04-14T06:57:15.052Z,64.31
2018-04-14T06:58:14.777Z,62.32
2018-04-14T06:59:15.032Z,61.97
2018-04-14T07:00:14.770Z,58.45
2018-04-14T07:01:15.023Z,55.76
2018-04-14T07:02:15.019Z,55.27
2018-04-14T07:03:15.017Z,55.37
2018-04-14T07:04:15.006Z,54.12
2018-04-14T07:05:15.008Z,53.45
2018-04-14T07:06:15.018Z,56.88
2018-04-14T07:07:14.996Z,55.56
2018-04-14T07:08:15.000Z,53.83
2018-04-14T07:09:14.996Z,52.8
2018-04-14T07:10:14.988Z,50.42
2018-04-14T07:11:14.723Z,47.17
2018-04-14T07:12:14.718Z,47.56
2018-04-14T07:13:14.985Z,47.94
2018-04-14T07:14:14.714Z,46.31
2018-04-14T07:15:14.973Z,46.69
2018-04-14T07:16:14.707Z,47.36
2018-04-14T07:17:14.964Z,47.75
2018-04-14T07:18:14.963Z,48.23
2018-04-14T07:19:14.962Z,47.72
2018-04-14T07:20:14.957Z,47.63
2018-04-14T07:21:14.950Z,49.27
2018-04-14T07:22:14.952Z,48.79
2018-04-14T07:23:14.945Z,47.44
2018-04-14T07:24:14.966Z,46.95
2018-04-14T07:25:14.940Z,50.3
2018-04-14T07:26:14.939Z,49.15
2018-04-14T07:27:14.937Z,48.08
2018-04-14T07:28:14.932Z,48.95
2018-04-14T07:29:14.669Z,50.59
2018-04-14T07:30:14.925Z,49.05
2018-04-14T07:31:14.942Z,50.85
2018-04-14T07:32:14.916Z,51.98
2018-04-14T07:33:14.914Z,52.53
2018-04-14T07:34:14.908Z,56.41
2018-04-14T07:35:14.910Z,58.2
2018-04-14T07:36:14.906Z,60.57
2018-04-14T07:37:14.898Z,66.96
2018-04-14T07:38:14.895Z,70.21
2018-04-14T07:39:14.630Z,74.77
2018-04-14T07:40:14.888Z,72.09
2018-04-14T07:41:14.879Z,73.3
2018-04-14T07:42:14.877Z,77
2018-04-14T07:43:14.871Z,79.68
2018-04-14T07:44:14.872Z,81.59
2018-04-14T07:45:14.864Z,86.23
2018-04-14T07:46:14.854Z,90.25
2018-04-14T07:47:14.849Z,88.72
2018-04-14T07:48:14.843Z,93.21
2018-04-14T07:49:14.835Z,92.74
2018-04-14T07:50:14.848Z,91.83
2018-04-14T07:51:14.831Z,91.93
2018-04-14T07:52:14.564Z,93.45
2018-04-14T07:53:14.815Z,93.74
2018-04-14T07:54:14.813Z,93.74
2018-04-14T07:55:14.805Z,94.79
2018-04-14T07:56:14.796Z,95.75
2018-04-14T07:57:14.794Z,93.93
2018-04-14T07:58:14.792Z,94.84
2018-04-14T07:59:14.793Z,95.51
2018-04-14T08:00:14.777Z,94.55
2018-04-14T08:01:14.512Z,94.74
2018-04-14T08:02:14.511Z,94.93
2018-04-14T08:03:14.763Z,95.61
2018-04-14T08:04:14.769Z,95.61
2018-04-14T08:05:14.751Z,96.61
2018-04-14T08:06:14.764Z,95.07
2018-04-14T08:07:14.740Z,96.75
2018-04-14T08:08:14.745Z,95.98
2018-04-14T08:09:14.469Z,95.22
2018-04-14T08:10:14.785Z,96.27
2018-04-14T08:11:14.460Z,96.17
2018-04-14T08:12:14.711Z,96.03
2018-04-14T08:13:14.703Z,95.75
2018-04-14T08:14:14.700Z,97.23
2018-04-14T08:15:14.692Z,96.32
2018-04-14T08:16:14.688Z,96.51
2018-04-14T08:17:14.681Z,96.32
2018-04-14T08:18:14.676Z,96.61
2018-04-14T08:19:14.405Z,96.89
2018-04-14T08:20:14.663Z,96.99
2018-04-14T08:21:14.652Z,97.56
2018-04-14T08:22:14.647Z,96.8
2018-04-14T08:23:14.643Z,95.94
2018-04-14T08:24:14.636Z,95.75
2018-04-14T08:25:14.634Z,95.56
2018-04-14T08:26:14.368Z,94.89
2018-04-14T08:27:14.622Z,95.75
2018-04-14T08:28:14.617Z,96.61
2018-04-14T08:29:14.610Z,98.13
2018-04-14T08:30:14.344Z,97.47
2018-04-14T08:31:14.600Z,96.61
2018-04-14T08:32:14.592Z,95.94
2018-04-14T08:33:14.584Z,96.66
2018-04-14T08:34:14.577Z,94.31
2018-04-14T08:35:14.574Z,96.66
2018-04-14T08:36:14.565Z,96.56
2018-04-14T08:37:14.629Z,96.13
2018-04-14T08:38:14.549Z,95.32
2018-04-14T08:39:14.287Z,95.61
2018-04-14T08:40:14.286Z,94.65
2018-04-14T08:41:14.539Z,95.41
2018-04-14T08:42:14.271Z,95.61
2018-04-14T08:43:14.523Z,96.08
2018-04-14T08:44:14.518Z,94.07
2018-04-14T08:45:14.511Z,92.25
2018-04-14T08:46:14.250Z,93.35
2018-04-14T08:47:14.546Z,93.4
2018-04-14T08:48:14.496Z,95.17
2018-04-14T08:49:14.533Z,93.93
2018-04-14T08:50:14.487Z,92.88
2018-04-14T08:51:14.478Z,93.07
2018-04-14T08:52:14.218Z,92.78
2018-04-14T08:53:14.210Z,93.35
2018-04-14T08:54:14.521Z,93.07
2018-04-14T08:55:14.482Z,93.26
2018-04-14T08:56:14.448Z,93.16
2018-04-14T08:57:14.448Z,95.03
2018-04-14T08:58:14.439Z,95.7
2018-04-14T08:59:14.437Z,94.07
2018-04-14T09:00:14.178Z,92.83
2018-04-14T09:01:14.426Z,92.16
2018-04-14T09:02:14.425Z,93.02
2018-04-14T09:03:14.417Z,91.97
2018-04-14T09:04:14.414Z,93.21
2018-04-14T09:05:14.406Z,92.73
2018-04-14T09:06:14.403Z,93.21
2018-04-14T09:07:14.138Z,90.63
2018-04-14T09:08:14.393Z,92.73
2018-04-14T09:09:14.390Z,94.02
2018-04-14T09:10:14.390Z,91.83
2018-04-14T09:11:14.375Z,92.88
2018-04-14T09:12:14.369Z,94.41
2018-04-14T09:13:14.365Z,95.56
2018-04-14T09:14:14.102Z,93.84
2018-04-14T09:15:14.354Z,95.07
2018-04-14T09:16:14.423Z,93.26
2018-04-14T09:17:14.347Z,93.93
2018-04-14T09:18:14.083Z,92.78
2018-04-14T09:19:14.349Z,94.26
2018-04-14T09:20:14.327Z,93.21
2018-04-14T09:21:14.328Z,92.83
2018-04-14T09:22:14.324Z,95.51
2018-04-14T09:23:14.320Z,94.45
2018-04-14T09:24:14.311Z,93.12
2018-04-14T09:25:14.303Z,92.25
2018-04-14T09:26:14.300Z,94.07
2018-04-14T09:27:14.298Z,94.21
2018-04-14T09:28:14.290Z,95.46
2018-04-14T09:29:14.289Z,95.27
2018-04-14T09:30:14.289Z,92.01
2018-04-14T09:31:14.279Z,88.95
2018-04-14T09:32:14.273Z,88.47
2018-04-14T09:33:14.011Z,91.05
2018-04-14T09:34:14.267Z,91.53
2018-04-14T09:35:14.262Z,90.48
2018-04-14T09:36:14.272Z,89.9
2018-04-14T09:37:13.993Z,91.92
2018-04-14T09:38:14.252Z,91.05
2018-04-14T09:39:13.984Z,90.09
2018-04-14T09:40:14.239Z,90.77
2018-04-14T09:41:13.976Z,90.72
2018-04-14T09:42:13.970Z,90.43
2018-04-14T09:43:14.230Z,86.79
2018-04-14T09:44:14.216Z,90.43
2018-04-14T09:45:14.218Z,91.1
2018-04-14T09:46:14.219Z,85.11
2018-04-14T09:47:13.950Z,85.39
2018-04-14T09:48:13.945Z,83.95
2018-04-14T09:49:14.203Z,85.39
2018-04-14T09:50:14.198Z,80.99
2018-04-14T09:51:14.193Z,80.99
2018-04-14T09:52:13.981Z,79.64
2018-04-14T09:53:13.927Z,80.79
2018-04-14T09:54:13.923Z,81.13
2018-04-14T09:55:14.173Z,78.4
2018-04-14T09:56:13.915Z,78.88
2018-04-14T09:57:13.911Z,82.42
2018-04-14T09:58:14.168Z,81.56
2018-04-14T09:59:13.901Z,82.71
2018-04-14T10:00:14.159Z,78.59
2018-04-14T10:01:13.895Z,78.44
2018-04-14T10:02:13.892Z,77.38
2018-04-14T10:03:14.144Z,78.05
2018-04-14T10:04:13.884Z,82.65
2018-04-14T10:05:14.139Z,78.34
2018-04-14T10:06:14.137Z,75.85
2018-04-14T10:07:14.134Z,75.27
2018-04-14T10:08:14.126Z,74.64
2018-04-14T10:09:13.867Z,73.83
2018-04-14T10:10:13.864Z,72.49
2018-04-14T10:11:14.122Z,71.44
2018-04-14T10:12:14.116Z,75.08
2018-04-14T10:13:14.113Z,76.52
2018-04-14T10:14:14.107Z,77.04
2018-04-14T10:15:14.103Z,76.17
2018-04-14T10:16:14.121Z,75.15
2018-04-14T10:17:14.099Z,73.04
2018-04-14T10:18:14.107Z,72.08
2018-04-14T10:19:13.840Z,70.17
2018-04-14T10:20:13.834Z,69.59
2018-04-14T10:21:14.088Z,67.96
2018-04-14T10:22:14.084Z,66
2018-04-14T10:23:14.082Z,68.69
2018-04-14T10:24:14.078Z,72.01
2018-04-14T10:25:14.078Z,69.33
2018-04-14T10:26:14.073Z,65.88
2018-04-14T10:27:14.071Z,76.81
2018-04-14T10:28:14.067Z,75.56
2018-04-14T10:29:14.063Z,72.11
2018-04-14T10:30:14.062Z,71.15
2018-04-14T10:31:14.054Z,72.78
2018-04-14T10:32:14.061Z,72.11
2018-04-14T10:33:14.052Z,74.31
2018-04-14T10:34:14.048Z,72.39
2018-04-14T10:35:13.784Z,70.67
2018-04-14T10:36:14.046Z,71.92
2018-04-14T10:37:14.040Z,71.05
2018-04-14T10:38:13.779Z,68.56
2018-04-14T10:39:13.775Z,70
2018-04-14T10:40:14.029Z,66.45
2018-04-14T10:41:14.030Z,65.59
2018-04-14T10:42:14.025Z,65.2
2018-04-14T10:43:14.017Z,64.53
2018-04-14T10:44:14.017Z,64.82
2018-04-14T10:45:13.757Z,67.99
2018-04-14T10:46:14.015Z,65.68
2018-04-14T10:47:14.007Z,67.6
2018-04-14T10:48:14.006Z,67.69
2018-04-14T10:49:13.743Z,65.65
2018-04-14T10:50:14.000Z,64.69
2018-04-14T10:51:13.737Z,65.84
2018-04-14T10:52:13.996Z,67.05
2018-04-14T10:53:13.736Z,67.34
2018-04-14T10:54:13.726Z,66.67
2018-04-14T10:55:13.721Z,68.74
2018-04-14T10:56:13.718Z,69.99
2018-04-14T10:57:13.714Z,70.66
2018-04-14T10:58:13.968Z,70.03
2018-04-14T10:59:13.969Z,71.46
2018-04-14T11:00:13.707Z,71.02
2018-04-14T11:01:13.703Z,72.2
2018-04-14T11:02:13.698Z,68.18
2018-04-14T11:03:13.703Z,68.46
2018-04-14T11:04:13.949Z,73.07
2018-04-14T11:05:13.945Z,73.74
2018-04-14T11:06:13.946Z,70.9
2018-04-14T11:07:13.939Z,68.08
2018-04-14T11:08:13.677Z,68.85
2018-04-14T11:09:13.671Z,68.66
2018-04-14T11:10:13.670Z,69.81
2018-04-14T11:11:13.667Z,71.72
2018-04-14T11:12:13.920Z,70.38
2018-04-14T11:13:13.916Z,66.64
2018-04-14T11:14:13.917Z,68.62
2018-04-14T11:15:13.943Z,69.29
2018-04-14T11:16:13.649Z,67.69
2018-04-14T11:17:13.647Z,66.83
2018-04-14T11:18:13.643Z,65.94
2018-04-14T11:19:13.902Z,65.39
2018-04-14T11:20:13.637Z,67.41
2018-04-14T11:21:13.900Z,65.23
2018-04-14T11:22:13.900Z,64.37
2018-04-14T11:23:13.883Z,65.81
2018-04-14T11:24:13.622Z,64.34
2018-04-14T11:25:13.881Z,62.81
2018-04-14T11:26:13.616Z,64.15
2018-04-14T11:27:13.873Z,65.3
2018-04-14T11:28:13.871Z,65.68
2018-04-14T11:29:13.608Z,62.62
2018-04-14T11:30:13.867Z,60.92
2018-04-14T11:31:13.631Z,64.85
2018-04-14T11:32:13.853Z,65.81
2018-04-14T11:33:13.852Z,63.51
2018-04-14T11:34:13.850Z,64.76
2018-04-14T11:35:13.908Z,63.12
2018-04-14T11:36:13.847Z,63.42
2018-04-14T11:37:13.840Z,64.66
2018-04-14T11:38:13.845Z,67.44
2018-04-14T11:39:13.839Z,62.19
2018-04-14T11:40:13.830Z,62.01
2018-04-14T11:41:13.827Z,63.25
2018-04-14T11:42:13.829Z,62.19
2018-04-14T11:43:13.827Z,60.08
2018-04-14T11:44:13.819Z,60.4
2018-04-14T11:45:13.814Z,57.9
2018-04-14T11:46:13.815Z,55.41
2018-04-14T11:47:13.552Z,54.52
2018-04-14T11:48:13.551Z,56.05
2018-04-14T11:49:13.808Z,61.91
2018-04-14T11:50:13.544Z,59.7
2018-04-14T11:51:13.808Z,57.78
2018-04-14T11:52:13.536Z,55.47
2018-04-14T11:53:13.536Z,59.32
2018-04-14T11:54:13.790Z,58
2018-04-14T11:55:13.787Z,56.27
2018-04-14T11:56:13.528Z,61.24
2018-04-14T11:57:13.526Z,60.5
2018-04-14T11:58:13.780Z,55.51
2018-04-14T11:59:13.776Z,54.35
2018-04-14T12:00:13.779Z,54.61
2018-04-14T12:01:13.773Z,56.76
2018-04-14T12:02:13.770Z,54.9
2018-04-14T12:03:13.765Z,53.08
2018-04-14T12:04:13.505Z,55.38
2018-04-14T12:05:13.509Z,54.33
2018-04-14T12:06:13.502Z,52.6
2018-04-14T12:07:13.500Z,54.58
2018-04-14T12:08:13.751Z,53.91
2018-04-14T12:09:13.756Z,51.9
2018-04-14T12:10:13.748Z,55.45
2018-04-14T12:11:13.751Z,57.95
2018-04-14T12:12:13.742Z,58.04
2018-04-14T12:13:13.777Z,57.56
2018-04-14T12:14:13.738Z,59.29
2018-04-14T12:15:13.735Z,57.08
2018-04-14T12:16:13.475Z,53.15
2018-04-14T12:17:13.733Z,54.21
2018-04-14T12:18:13.723Z,55.07
2018-04-14T12:19:13.722Z,54.78
2018-04-14T12:20:13.462Z,55.26
2018-04-14T12:21:13.722Z,49.21
2018-04-14T12:22:13.460Z,50.65
2018-04-14T12:23:13.713Z,48.44
2018-04-14T12:24:13.451Z,49.31
2018-04-14T12:25:13.447Z,51.81
2018-04-14T12:26:13.442Z,51.14
2018-04-14T12:27:13.440Z,52.38
2018-04-14T12:28:13.696Z,53.72
2018-04-14T12:29:13.691Z,52.95
2018-04-14T12:30:13.695Z,52.95
2018-04-14T12:31:13.689Z,52
2018-04-14T12:32:13.683Z,52.09
2018-04-14T12:33:13.423Z,53.91
2018-04-14T12:34:13.680Z,56.02
2018-04-14T12:35:13.416Z,53.05
2018-04-14T12:36:13.674Z,52.28
2018-04-14T12:37:13.411Z,54.39
2018-04-14T12:38:13.406Z,54.56
2018-04-14T12:39:13.661Z,53.72
2018-04-14T12:40:13.656Z,50.94
2018-04-14T12:41:13.400Z,52
2018-04-14T12:42:13.398Z,55.16
2018-04-14T12:43:13.650Z,52.76
2018-04-14T12:44:13.648Z,53.82
2018-04-14T12:45:13.386Z,52.07
2018-04-14T12:46:13.643Z,52.93
2018-04-14T12:47:13.637Z,52.83
2018-04-14T12:48:13.379Z,50.34
2018-04-14T12:49:13.378Z,50.82
2018-04-14T12:50:13.625Z,52.74
2018-04-14T12:51:13.628Z,52.83
2018-04-14T12:52:13.624Z,56.19
2018-04-14T12:53:13.618Z,54.17
2018-04-14T12:54:13.615Z,53.31
2018-04-14T12:55:13.611Z,52.93